Time;durP1;ratioP1;P1;durP2;ratioP2;P2;SDS_P1;SDS_P2;PMS_P1;PMS_P2;Temp;Humidity;BMP_temperature;BMP_pressure;BME280_temperature;BME280_humidity;BME280_pressure;Samples;Min_cycle;Max_cycle;Signal;HPM_P1;HPM_P2
2022/07/22 00:02:23;;;;;;;;;;;;;;;19.42;66.18;100495.97;5013901;28;19924;-62
2022/07/22 00:05:10;;;;;;;;;;;;;;;19.41;66.08;100494.25;5015113;28;20269;-61
2022/07/22 00:07:57;;;;;;;;;;;;;;;19.40;66.14;100498.63;5014038;28;19929;-61
2022/07/22 00:10:41;;;;;;;;;;;;;;;19.39;66.23;100490.75;5013906;28;20480;-61
2022/07/22 00:13:25;;;;;;;;;;;;;;;19.39;66.24;100493.38;5014293;28;19972;-61
2022/07/22 00:16:09;;;;;;;;;;;;;;;19.40;66.36;100492.50;5014013;28;19925;-61
2022/07/22 00:18:53;;;;;;;;;;;;;;;19.39;66.42;100496.03;5014560;28;19924;-61
2022/07/22 00:21:37;;;;;;;;;;;;;;;19.38;66.40;100492.53;5014509;28;20415;-62
2022/07/22 00:24:21;;;;;;;;;;;;;;;19.38;66.20;100500.41;5014865;28;19932;-61
2022/07/22 00:27:05;;;;;;;;;;;;;;;19.38;66.31;100499.53;5014722;28;19929;-60
2022/07/22 00:29:49;;;;;;;;;;;;;;;19.38;66.21;100496.91;5014414;28;19972;-61
2022/07/22 00:32:33;;;;;;;;;;;;;;;19.37;66.38;100493.44;5014345;28;20415;-61
2022/07/22 00:35:17;;;;;;;;;;;;;;;19.36;66.50;100499.56;5014492;28;19952;-62
2022/07/22 00:38:01;;;;;;;;;;;;;;;19.35;66.44;100489.94;5013747;28;19968;-62
2022/07/22 00:40:45;;;;;;;;;;;;;;;19.35;66.48;100489.94;5014202;28;20391;-61
2022/07/22 00:43:47;;;;;;;;;;;;;;;19.33;66.77;100486.47;5013660;28;19924;-61
2022/07/22 00:46:32;;;;;;;;;;;;;;;19.33;66.55;100486.47;5013308;28;19925;-62
2022/07/22 00:49:16;;;;;;;;;;;;;;;19.32;66.63;100489.97;5013608;28;19964;-62
2022/07/22 00:52:00;;;;;;;;;;;;;;;19.32;66.43;100487.34;5014086;28;19944;-61
2022/07/22 00:54:44;;;;;;;;;;;;;;;19.30;66.48;100479.50;5013683;28;19973;-61
2022/07/22 00:57:27;;;;;;;;;;;;;;;19.28;66.68;100483.00;5013057;28;19925;-60
2022/07/22 01:00:18;;;;;;;;;;;;;;;19.27;66.65;100486.53;5014143;28;20016;-60
2022/07/22 01:03:01;;;;;;;;;;;;;;;19.25;66.46;100478.69;5012891;28;19963;-60
2022/07/22 01:05:45;;;;;;;;;;;;;;;19.24;66.62;100482.19;5013418;28;19944;-60
2022/07/22 01:08:29;;;;;;;;;;;;;;;19.20;66.36;100479.63;5013412;28;19924;-60
2022/07/22 01:11:15;;;;;;;;;;;;;;;19.20;66.63;100487.50;5014068;28;20017;-62
2022/07/22 01:13:58;;;;;;;;;;;;;;;19.17;66.66;100485.78;5014457;28;20060;-60
2022/07/22 01:16:43;;;;;;;;;;;;;;;19.16;66.71;100484.03;5013146;28;19972;-60
2022/07/22 01:19:27;;;;;;;;;;;;;;;19.14;66.75;100481.44;5013228;28;19975;-61
2022/07/22 01:22:11;;;;;;;;;;;;;;;19.13;66.61;100487.56;5014092;28;19959;-62
2022/07/22 01:24:55;;;;;;;;;;;;;;;19.11;66.66;100481.47;5013884;28;20414;-61
2022/07/22 01:27:38;;;;;;;;;;;;;;;19.11;66.73;100480.63;5014195;28;19923;-61
2022/07/22 01:30:22;;;;;;;;;;;;;;;19.10;66.83;100482.34;5013985;28;20268;-62
2022/07/22 01:33:06;;;;;;;;;;;;;;;19.08;66.60;100471.00;5012779;28;19924;-61
2022/07/22 01:35:51;;;;;;;;;;;;;;;19.08;66.82;100468.38;5014026;28;20367;-61
2022/07/22 01:38:37;;;;;;;;;;;;;;;19.05;66.67;100464.91;5013202;28;19981;-62
2022/07/22 01:41:24;;;;;;;;;;;;;;;19.02;66.68;100464.06;5014091;28;20351;-62
2022/07/22 01:44:10;;;;;;;;;;;;;;;19.01;66.62;100464.94;5013259;28;19924;-61
2022/07/22 01:46:55;;;;;;;;;;;;;;;19.02;66.66;100465.84;5013668;28;19928;-62
2022/07/22 01:49:38;;;;;;;;;;;;;;;18.99;66.74;100464.13;5012947;28;19925;-61
2022/07/22 01:52:22;;;;;;;;;;;;;;;18.98;66.56;100466.75;5013439;28;19924;-61
2022/07/22 01:55:12;;;;;;;;;;;;;;;18.95;66.54;100469.41;5012955;28;19923;-61
2022/07/22 01:57:58;;;;;;;;;;;;;;;18.92;66.53;100467.66;5013830;28;19928;-61
2022/07/22 02:00:42;;;;;;;;;;;;;;;18.93;66.72;100465.91;5013125;28;19925;-61
2022/07/22 02:03:26;;;;;;;;;;;;;;;18.92;66.26;100458.94;5012496;28;20020;-61
2022/07/22 02:06:09;;;;;;;;;;;;;;;18.86;66.54;100459.84;5014820;28;19924;-61
2022/07/22 02:08:53;;;;;;;;;;;;;;;18.85;66.50;100461.63;5016873;28;19925;-62
2022/07/22 02:11:40;;;;;;;;;;;;;;;18.84;66.37;100462.50;5015953;28;19974;-61
2022/07/22 02:14:24;;;;;;;;;;;;;;;18.82;66.72;100466.03;5016189;28;20005;-61
2022/07/22 02:17:15;;;;;;;;;;;;;;;18.80;66.70;100450.28;5016988;28;20024;-60
2022/07/22 02:19:59;;;;;;;;;;;;;;;18.78;66.59;100452.06;5016756;28;19924;-60
2022/07/22 02:22:46;;;;;;;;;;;;;;;18.76;66.27;100451.25;5016727;28;20015;-60
2022/07/22 02:25:30;;;;;;;;;;;;;;;18.76;66.61;100451.25;5016831;28;20028;-60
2022/07/22 02:28:14;;;;;;;;;;;;;;;18.72;66.71;100446.91;5016557;28;20309;-60
2022/07/22 02:30:57;;;;;;;;;;;;;;;18.71;66.54;100442.53;5016698;28;19924;-60
2022/07/22 02:33:42;;;;;;;;;;;;;;;18.70;66.72;100444.28;5016419;28;19924;-59
2022/07/22 02:36:25;;;;;;;;;;;;;;;18.66;66.65;100437.34;5016719;28;19954;-60
2022/07/22 02:39:09;;;;;;;;;;;;;;;18.67;66.69;100438.19;5016380;28;20029;-60
2022/07/22 02:41:56;;;;;;;;;;;;;;;18.64;66.65;100428.59;5016000;28;19971;-60
2022/07/22 02:44:40;;;;;;;;;;;;;;;18.63;66.63;100434.75;5016530;28;19924;-60
2022/07/22 02:47:23;;;;;;;;;;;;;;;18.63;66.50;100425.97;5016204;28;19924;-60
2022/07/22 02:50:07;;;;;;;;;;;;;;;18.62;66.46;100425.13;5016442;28;19971;-59
2022/07/22 02:52:51;;;;;;;;;;;;;;;18.61;66.63;100433.88;5016239;28;20059;-60
2022/07/22 02:55:38;;;;;;;;;;;;;;;18.60;66.68;100433.91;5016086;28;19929;-59
2022/07/22 02:58:23;;;;;;;;;;;;;;;18.60;66.55;100449.66;5016094;28;19969;-61
2022/07/22 03:01:07;;;;;;;;;;;;;;;18.58;66.51;100439.16;5015422;28;19940;-62
2022/07/22 03:03:51;;;;;;;;;;;;;;;18.56;66.71;100435.69;5015175;28;19964;-62
2022/07/22 03:06:35;;;;;;;;;;;;;;;18.53;66.54;100436.59;5016144;28;19928;-60
2022/07/22 03:09:19;;;;;;;;;;;;;;;18.52;66.67;100429.59;5016197;28;19924;-60
2022/07/22 03:12:03;;;;;;;;;;;;;;;18.50;66.43;100426.13;5015693;28;19924;-60
2022/07/22 03:14:47;;;;;;;;;;;;;;;18.49;66.44;100434.88;5015978;28;19963;-61
2022/07/22 03:17:35;;;;;;;;;;;;;;;18.48;66.53;100435.75;5015134;28;19940;-60
2022/07/22 03:20:21;;;;;;;;;;;;;;;18.45;66.54;100437.56;5014967;28;20472;-59
2022/07/22 03:23:05;;;;;;;;;;;;;;;18.45;66.43;100433.16;5015086;28;19967;-60
2022/07/22 03:25:49;;;;;;;;;;;;;;;18.43;66.43;100434.97;5015446;28;19924;-59
2022/07/22 03:28:33;;;;;;;;;;;;;;;18.38;66.42;100434.97;5015287;28;20017;-59
2022/07/22 03:31:19;;;;;;;;;;;;;;;18.38;66.45;100432.38;5015401;28;20009;-60
2022/07/22 03:34:03;;;;;;;;;;;;;;;18.37;66.46;100430.63;5015436;28;19952;-59
2022/07/22 03:36:50;;;;;;;;;;;;;;;18.37;66.42;100435.00;5014748;28;19924;-59
2022/07/22 03:39:34;;;;;;;;;;;;;;;18.36;66.47;100426.28;5014687;28;19966;-59
2022/07/22 03:42:18;;;;;;;;;;;;;;;18.37;66.36;100435.00;5015197;28;20403;-60
2022/07/22 03:45:02;;;;;;;;;;;;;;;18.34;66.37;100433.31;5015360;28;19924;-60
2022/07/22 03:47:49;;;;;;;;;;;;;;;18.35;66.36;100435.03;5014998;28;19927;-60
2022/07/22 03:50:33;;;;;;;;;;;;;;;18.34;66.49;100424.53;5014295;28;20292;-60
2022/07/22 03:53:17;;;;;;;;;;;;;;;18.31;66.43;100435.06;5014925;28;19971;-59
2022/07/22 03:56:01;;;;;;;;;;;;;;;18.30;66.47;100433.31;5014858;28;19940;-60
2022/07/22 03:58:45;;;;;;;;;;;;;;;18.30;66.64;100428.06;5014322;28;20537;-60
2022/07/22 04:01:32;;;;;;;;;;;;;;;18.28;66.59;100430.72;5014509;28;19924;-59
2022/07/22 04:04:16;;;;;;;;;;;;;;;18.28;66.70;100427.25;5014674;28;19928;-60
2022/07/22 04:07:00;;;;;;;;;;;;;;;18.24;66.49;100429.88;5015088;28;20388;-60
2022/07/22 04:09:43;;;;;;;;;;;;;;;18.26;66.44;100428.13;5014823;28;19964;-60
2022/07/22 04:12:27;;;;;;;;;;;;;;;18.24;66.47;100427.28;5014734;28;19923;-60
2022/07/22 04:15:15;;;;;;;;;;;;;;;18.20;66.79;100425.56;5014905;28;19924;-60
2022/07/22 04:17:59;;;;;;;;;;;;;;;18.19;66.58;100421.19;5014672;28;20399;-60
2022/07/22 04:20:48;;;;;;;;;;;;;;;18.20;66.64;100422.94;5013794;28;19941;-59
2022/07/22 04:23:32;;;;;;;;;;;;;;;18.20;66.65;100422.06;5014001;28;19939;-60
2022/07/22 04:26:16;;;;;;;;;;;;;;;18.20;66.66;100428.19;5014860;28;19960;-59
2022/07/22 04:29:04;;;;;;;;;;;;;;;18.18;66.86;100422.06;5012965;28;20055;-60
2022/07/22 04:31:51;;;;;;;;;;;;;;;18.19;66.50;100422.97;5013566;28;20003;-59
2022/07/22 04:34:37;;;;;;;;;;;;;;;18.19;66.56;100415.94;5014730;28;20023;-61
2022/07/22 04:37:22;;;;;;;;;;;;;;;18.19;66.56;100417.72;5014355;28;20336;-59
2022/07/22 04:40:06;;;;;;;;;;;;;;;18.18;66.65;100424.69;5014184;28;19944;-59
2022/07/22 04:42:50;;;;;;;;;;;;;;;18.15;66.64;100418.63;5014539;28;19924;-60
2022/07/22 04:45:34;;;;;;;;;;;;;;;18.13;66.70;100418.63;5014255;28;20384;-60
2022/07/22 04:48:18;;;;;;;;;;;;;;;18.15;66.60;100419.47;5014376;28;20399;-60
2022/07/22 04:51:03;;;;;;;;;;;;;;;18.16;66.56;100423.84;5013317;28;19924;-59
2022/07/22 04:53:47;;;;;;;;;;;;;;;18.19;66.67;100420.34;5013528;28;19972;-60
2022/07/22 04:56:30;;;;;;;;;;;;;;;18.16;66.60;100413.34;5014106;28;19932;-59
2022/07/22 04:59:14;;;;;;;;;;;;;;;18.19;66.81;100425.56;5014430;28;19924;-59
2022/07/22 05:01:58;;;;;;;;;;;;;;;18.20;66.88;100419.44;5014047;28;19933;-59
2022/07/22 05:04:42;;;;;;;;;;;;;;;18.16;66.77;100418.59;5014294;28;19948;-61
2022/07/22 05:07:26;;;;;;;;;;;;;;;18.15;66.90;100416.84;5014310;28;19924;-61
2022/07/22 05:10:10;;;;;;;;;;;;;;;18.15;66.98;100416.84;5014229;28;19925;-61
2022/07/22 05:12:54;;;;;;;;;;;;;;;18.17;67.08;100409.84;5013383;28;20284;-61
2022/07/22 05:15:38;;;;;;;;;;;;;;;18.19;66.85;100413.31;5014306;28;20320;-61
2022/07/22 05:18:22;;;;;;;;;;;;;;;18.20;66.95;100406.34;5012970;28;20048;-61
2022/07/22 05:21:06;;;;;;;;;;;;;;;18.19;66.94;100404.59;5013865;28;19972;-61
2022/07/22 05:23:50;;;;;;;;;;;;;;;18.16;67.01;100405.47;5013296;28;20381;-61
2022/07/22 05:26:36;;;;;;;;;;;;;;;18.19;66.88;100413.31;5013020;28;19924;-61
2022/07/22 05:29:20;;;;;;;;;;;;;;;18.22;67.33;100410.66;5013818;28;19963;-60
2022/07/22 05:32:04;;;;;;;;;;;;;;;18.22;67.09;100408.03;5013649;28;19971;-60
2022/07/22 05:34:48;;;;;;;;;;;;;;;18.23;67.09;100414.16;5013823;28;19964;-60
2022/07/22 05:37:32;;;;;;;;;;;;;;;18.22;67.03;100408.03;5012928;28;20387;-61
2022/07/22 05:40:16;;;;;;;;;;;;;;;18.23;67.12;100404.53;5015673;28;19924;-60
2022/07/22 05:43:00;;;;;;;;;;;;;;;18.24;67.31;100410.66;5016575;28;20013;-60
2022/07/22 05:45:44;;;;;;;;;;;;;;;18.23;67.18;100409.78;5016740;28;20411;-60
2022/07/22 05:48:28;;;;;;;;;;;;;;;18.23;67.11;100408.91;5017313;28;19924;-60
2022/07/22 05:51:12;;;;;;;;;;;;;;;18.25;67.17;100407.13;5017154;28;19944;-59
2022/07/22 05:53:58;;;;;;;;;;;;;;;18.26;67.24;100406.25;5017546;28;20008;-60
2022/07/22 05:56:43;;;;;;;;;;;;;;;18.28;67.46;100401.88;5017158;28;20332;-61
2022/07/22 05:59:30;;;;;;;;;;;;;;;18.32;67.39;100406.22;5017328;28;20288;-60
2022/07/22 06:02:16;;;;;;;;;;;;;;;18.33;67.22;100404.44;5017321;28;19924;-61
2022/07/22 06:05:00;;;;;;;;;;;;;;;18.33;67.17;100404.44;5016428;28;19963;-61
2022/07/22 06:07:47;;;;;;;;;;;;;;;18.34;67.42;100407.06;5017290;28;20388;-61
2022/07/22 06:10:34;;;;;;;;;;;;;;;18.36;67.22;100404.41;5016126;28;21896;-59
2022/07/22 06:13:24;;;;;;;;;;;;;;;18.35;67.13;100405.28;5016127;28;20414;-60
2022/07/22 06:16:08;;;;;;;;;;;;;;;18.33;67.08;100392.19;5016198;28;19964;-60
2022/07/22 06:18:54;;;;;;;;;;;;;;;18.35;67.23;100405.28;5016885;28;19923;-60
2022/07/22 06:21:43;;;;;;;;;;;;;;;18.36;67.32;100397.44;5016449;28;19940;-60
2022/07/22 06:24:31;;;;;;;;;;;;;;;18.38;67.32;100397.41;5015838;28;20327;-60
2022/07/22 06:27:18;;;;;;;;;;;;;;;18.34;67.32;100399.19;5015941;28;19928;-61
2022/07/22 06:30:06;;;;;;;;;;;;;;;18.35;66.96;100402.66;5016801;28;19952;-61
2022/07/22 06:32:50;;;;;;;;;;;;;;;18.35;67.12;100405.28;5015931;28;20039;-62
2022/07/22 06:35:37;;;;;;;;;;;;;;;18.34;67.08;100404.44;5016843;28;20335;-59
2022/07/22 06:38:27;;;;;;;;;;;;;;;18.34;67.00;100399.19;5015369;28;19925;-59
2022/07/22 06:41:13;;;;;;;;;;;;;;;18.35;67.13;100389.56;5015778;28;19968;-62
2022/07/22 06:44:00;;;;;;;;;;;;;;;18.35;67.08;100394.81;5015698;28;19924;-60
2022/07/22 06:46:44;;;;;;;;;;;;;;;18.37;66.98;100398.28;5016246;28;19924;-59
2022/07/22 06:49:33;;;;;;;;;;;;;;;18.39;67.03;100409.63;5016203;28;19963;-59
2022/07/22 06:52:18;;;;;;;;;;;;;;;18.41;66.78;100400.00;5014465;28;19924;-59
2022/07/22 06:55:03;;;;;;;;;;;;;;;18.38;66.83;100395.63;5016089;28;20281;-59
2022/07/22 06:57:47;;;;;;;;;;;;;;;18.37;66.82;100388.63;5015492;28;19944;-60
2022/07/22 07:00:33;;;;;;;;;;;;;;;18.38;66.65;100386.91;5014927;28;19971;-61
2022/07/22 07:03:18;;;;;;;;;;;;;;;18.38;66.77;100390.38;5016039;28;19940;-60
2022/07/22 07:06:06;;;;;;;;;;;;;;;18.39;66.60;100397.38;5015036;28;19940;-60
2022/07/22 07:08:52;;;;;;;;;;;;;;;18.38;66.38;100390.38;5015152;28;20032;-60
2022/07/22 07:11:39;;;;;;;;;;;;;;;18.40;66.48;100387.75;5014732;28;20023;-59
2022/07/22 07:14:23;;;;;;;;;;;;;;;18.39;66.62;100388.66;5015858;28;19923;-59
2022/07/22 07:17:07;;;;;;;;;;;;;;;18.41;66.68;100392.97;5015992;28;20081;-59
2022/07/22 07:19:51;;;;;;;;;;;;;;;18.40;66.55;100393.00;5015061;28;20368;-59
2022/07/22 07:22:37;;;;;;;;;;;;;;;18.40;66.39;100386.00;5015677;28;20309;-59
2022/07/22 07:25:26;;;;;;;;;;;;;;;18.44;66.35;100389.47;5014893;28;19968;-59
2022/07/22 07:28:10;;;;;;;;;;;;;;;18.47;66.32;100383.31;5014825;28;19972;-59
2022/07/22 07:30:57;;;;;;;;;;;;;;;18.49;66.24;100385.03;5015315;28;20007;-60
2022/07/22 07:33:41;;;;;;;;;;;;;;;18.53;66.08;100378.00;5015561;28;19924;-59
2022/07/22 07:36:25;;;;;;;;;;;;;;;18.53;66.15;100381.47;5015544;28;20316;-59
2022/07/22 07:39:08;;;;;;;;;;;;;;;18.56;66.24;100381.44;5014285;28;20273;-59
2022/07/22 07:41:52;;;;;;;;;;;;;;;18.59;66.25;100384.94;5014558;28;20024;-59
2022/07/22 07:44:36;;;;;;;;;;;;;;;18.61;66.11;100384.00;5015175;28;19936;-61
2022/07/22 07:47:22;;;;;;;;;;;;;;;18.61;66.20;100385.78;5014958;28;19948;-59
2022/07/22 07:50:07;;;;;;;;;;;;;;;18.62;65.96;100384.88;5014926;28;19985;-59
2022/07/22 07:52:51;;;;;;;;;;;;;;;18.61;65.96;100383.16;5014391;28;20396;-60
2022/07/22 07:55:37;;;;;;;;;;;;;;;18.64;65.89;100389.25;5015285;28;20395;-59
2022/07/22 07:58:21;;;;;;;;;;;;;;;18.65;65.77;100380.47;5014951;28;20285;-59
2022/07/22 08:01:06;;;;;;;;;;;;;;;18.68;65.72;100384.81;5015245;28;20163;-61
2022/07/22 08:03:50;;;;;;;;;;;;;;;18.69;65.83;100383.94;5013990;28;20431;-60
2022/07/22 08:06:34;;;;;;;;;;;;;;;18.70;65.70;100377.78;5013836;28;19944;-61
2022/07/22 08:09:18;;;;;;;;;;;;;;;18.70;65.73;100376.03;5015023;28;19932;-60
2022/07/22 08:12:04;;;;;;;;;;;;;;;18.72;65.47;100376.88;5013808;28;19924;-61
2022/07/22 08:14:48;;;;;;;;;;;;;;;18.74;65.49;100386.50;5014740;28;20040;-61
2022/07/22 08:17:33;;;;;;;;;;;;;;;18.76;65.39;100379.47;5014665;28;19924;-61
2022/07/22 08:20:19;;;;;;;;;;;;;;;18.75;65.41;100383.88;5013962;28;19964;-61
2022/07/22 08:23:04;;;;;;;;;;;;;;;18.76;65.28;100382.97;5013830;28;20399;-61
2022/07/22 08:25:50;;;;;;;;;;;;;;;18.77;65.37;100383.84;5013810;28;19924;-61
2022/07/22 08:28:35;;;;;;;;;;;;;;;18.77;65.36;100362.81;5013765;28;19924;-61
2022/07/22 08:31:18;;;;;;;;;;;;;;;18.77;65.38;100366.31;5013297;28;20292;-61
2022/07/22 08:34:04;;;;;;;;;;;;;;;18.77;65.30;100371.56;5014574;28;19929;-60
2022/07/22 08:36:50;;;;;;;;;;;;;;;18.76;65.16;100367.22;5014463;28;19964;-61
2022/07/22 08:39:35;;;;;;;;;;;;;;;18.77;65.25;100368.06;5013320;28;20380;-60
2022/07/22 08:42:22;;;;;;;;;;;;;;;18.78;65.28;100370.66;5013395;28;19923;-62
2022/07/22 08:45:07;;;;;;;;;;;;;;;18.78;65.10;100367.19;5013916;28;19971;-62
2022/07/22 08:47:54;;;;;;;;;;;;;;;18.79;64.99;100382.91;5013154;28;19940;-62
2022/07/22 08:50:38;;;;;;;;;;;;;;;18.79;65.24;100367.16;5014458;28;19928;-62
2022/07/22 08:53:22;;;;;;;;;;;;;;;18.80;65.00;100368.03;5013253;28;19924;-62
2022/07/22 08:56:06;;;;;;;;;;;;;;;18.81;65.10;100364.53;5013999;28;20343;-61
2022/07/22 08:58:50;;;;;;;;;;;;;;;18.81;64.99;100364.53;5014170;28;19940;-61
2022/07/22 09:01:34;;;;;;;;;;;;;;;18.82;64.88;100364.50;5013855;28;19963;-62
2022/07/22 09:04:18;;;;;;;;;;;;;;;18.84;64.97;100367.97;5013407;28;20442;-60
2022/07/22 09:07:01;;;;;;;;;;;;;;;18.85;64.88;100364.47;5014145;28;19924;-62
2022/07/22 09:09:49;;;;;;;;;;;;;;;18.84;64.89;100365.34;5014169;28;19928;-62
2022/07/22 09:12:34;;;;;;;;;;;;;;;18.86;64.87;100371.47;5012961;28;19923;-62
2022/07/22 09:15:27;;;;;;;;;;;;;;;18.88;64.87;100368.81;5014913;28;19924;-62
2022/07/22 09:18:17;;;;;;;;;;;;;;;18.90;64.92;100366.16;5017356;28;19967;-62
2022/07/22 09:21:04;;;;;;;;;;;;;;;18.92;64.77;100370.50;5017212;28;19924;-62
2022/07/22 09:23:48;;;;;;;;;;;;;;;18.92;64.83;100375.75;5017259;28;19924;-62
2022/07/22 09:26:33;;;;;;;;;;;;;;;18.92;64.54;100369.66;5017970;28;19940;-61
2022/07/22 09:29:20;;;;;;;;;;;;;;;18.93;64.71;100358.22;5017753;28;20423;-62
2022/07/22 09:32:06;;;;;;;;;;;;;;;18.92;64.70;100348.66;5016784;28;20399;-61
2022/07/22 09:35:01;;;;;;;;;;;;;;;18.93;64.57;100350.34;5017060;28;19967;-61
2022/07/22 09:37:48;;;;;;;;;;;;;;;18.94;64.63;100344.22;5016665;28;20435;-62
2022/07/22 09:40:36;;;;;;;;;;;;;;;18.95;64.52;100335.47;5017651;28;20431;-62
2022/07/22 09:43:21;;;;;;;;;;;;;;;18.96;64.49;100330.22;5017679;28;19925;-62
2022/07/22 09:46:05;;;;;;;;;;;;;;;18.97;64.48;100325.81;5016769;28;20016;-62
2022/07/22 09:48:49;;;;;;;;;;;;;;;18.97;64.33;100331.06;5017423;28;19924;-61
2022/07/22 09:51:36;;;;;;;;;;;;;;;18.98;64.27;100338.94;5017154;28;19924;-61
2022/07/22 09:54:22;;;;;;;;;;;;;;;18.99;64.34;100335.44;5016659;28;20280;-62
2022/07/22 09:57:08;;;;;;;;;;;;;;;18.99;64.36;100319.69;5016480;28;19991;-62
2022/07/22 09:59:58;;;;;;;;;;;;;;;18.99;64.44;100330.19;5016512;28;19971;-62
2022/07/22 10:02:53;;;;;;;;;;;;;;;19.00;64.27;100326.63;5016846;28;19925;-63
2022/07/22 10:05:38;;;;;;;;;;;;;;;19.02;64.37;100327.50;5016237;28;19972;-62
2022/07/22 10:08:24;;;;;;;;;;;;;;;19.02;64.37;100335.38;5016394;28;20016;-62
2022/07/22 10:11:10;;;;;;;;;;;;;;;19.03;64.40;100338.88;5016147;28;19924;-63
2022/07/22 10:13:55;;;;;;;;;;;;;;;19.05;64.23;100336.22;5017138;28;19924;-62
2022/07/22 10:16:46;;;;;;;;;;;;;;;19.06;64.41;100337.97;5015840;28;19960;-60
2022/07/22 10:19:31;;;;;;;;;;;;;;;19.09;64.29;100343.16;5017115;28;19923;-61
2022/07/22 10:22:45;;;;;;;;;;;;;;;19.09;64.15;100338.78;5015919;28;20010;-60
2022/07/22 10:25:47;;;;;;;;;;;;;;;19.09;63.99;100335.28;5016873;28;19971;-60
2022/07/22 10:28:33;;;;;;;;;;;;;;;19.10;64.03;100326.53;5016612;28;19925;-61
2022/07/22 10:31:24;;;;;;;;;;;;;;;19.10;64.11;100316.00;5016597;28;19963;-61
2022/07/22 10:34:08;;;;;;;;;;;;;;;19.12;64.13;100316.88;5015864;28;19967;-62
2022/07/22 10:36:52;;;;;;;;;;;;;;;19.12;64.10;100317.72;5016172;28;19924;-60
2022/07/22 10:39:56;;;;;;;;;;;;;;;19.12;64.08;100312.47;5016557;28;19927;-61
2022/07/22 10:42:59;;;;;;;;;;;;;;;19.14;64.13;100322.97;5016508;28;19940;-61
2022/07/22 10:45:48;;;;;;;;;;;;;;;19.15;64.01;100320.31;5016188;28;20443;-61
2022/07/22 10:48:37;;;;;;;;;;;;;;;19.17;63.95;100320.28;5016621;28;19963;-61
2022/07/22 10:51:22;;;;;;;;;;;;;;;19.20;64.17;100309.72;5016080;28;19940;-60
2022/07/22 10:54:07;;;;;;;;;;;;;;;19.21;63.98;100307.97;5016315;28;20320;-63
2022/07/22 10:56:51;;;;;;;;;;;;;;;19.20;63.91;100307.09;5015514;28;19924;-61
2022/07/22 10:59:35;;;;;;;;;;;;;;;19.25;63.73;100307.03;5016272;28;19924;-60
2022/07/22 11:02:20;;;;;;;;;;;;;;;19.24;63.83;100308.78;5015730;28;19924;-60
2022/07/22 11:05:05;;;;;;;;;;;;;;;19.25;63.77;100307.91;5015371;28;19923;-61
2022/07/22 11:07:49;;;;;;;;;;;;;;;19.25;63.99;100307.91;5015534;28;20285;-60
2022/07/22 11:10:36;;;;;;;;;;;;;;;19.25;63.73;100304.38;5015577;28;19924;-61
2022/07/22 11:13:33;;;;;;;;;;;;;;;19.27;63.75;100292.09;5015814;28;20014;-61
2022/07/22 11:16:22;;;;;;;;;;;;;;;19.26;63.66;100296.50;5015897;28;19924;-61
2022/07/22 11:19:06;;;;;;;;;;;;;;;19.28;63.72;100302.59;5014876;28;19928;-62
2022/07/22 11:21:52;;;;;;;;;;;;;;;19.28;63.75;100292.09;5015941;28;19924;-60
2022/07/22 11:24:36;;;;;;;;;;;;;;;19.29;63.96;100285.06;5014815;28;19971;-60
2022/07/22 11:27:25;;;;;;;;;;;;;;;19.32;63.78;100287.66;5015806;28;19924;-60
2022/07/22 11:30:09;;;;;;;;;;;;;;;19.32;63.67;100285.88;5014840;28;20269;-61
2022/07/22 11:32:53;;;;;;;;;;;;;;;19.33;63.59;100279.72;5015729;28;19924;-62
2022/07/22 11:35:37;;;;;;;;;;;;;;;19.34;63.85;100278.00;5015648;28;19955;-61
2022/07/22 11:38:21;;;;;;;;;;;;;;;19.35;63.69;100271.84;5015276;28;19924;-62
2022/07/22 11:41:13;;;;;;;;;;;;;;;19.37;63.54;100261.28;5015294;28;19924;-60
2022/07/22 11:43:58;;;;;;;;;;;;;;;19.37;63.60;100267.44;5014478;28;20000;-60
2022/07/22 11:46:42;;;;;;;;;;;;;;;19.38;63.69;100260.41;5015256;28;19925;-61
2022/07/22 11:49:28;;;;;;;;;;;;;;;19.39;63.80;100260.34;5015179;28;19964;-60
2022/07/22 11:52:12;;;;;;;;;;;;;;;19.39;63.55;100252.47;5013924;28;20355;-61
2022/07/22 11:55:01;;;;;;;;;;;;;;;19.41;63.51;100249.84;5015486;28;19928;-60
2022/07/22 11:57:51;;;;;;;;;;;;;;;19.41;63.50;100248.06;5014367;28;19963;-61
2022/07/22 12:00:41;;;;;;;;;;;;;;;19.45;63.49;100236.63;5014104;28;19924;-60
2022/07/22 12:03:27;;;;;;;;;;;;;;;19.45;63.50;100228.72;5013744;28;19924;-61
2022/07/22 12:06:15;;;;;;;;;;;;;;;19.45;63.63;100228.72;5014225;28;19924;-62
2022/07/22 12:09:04;;;;;;;;;;;;;;;19.46;63.52;100225.22;5014103;28;19925;-61
2022/07/22 12:11:55;;;;;;;;;;;;;;;19.47;63.53;100224.31;5014693;28;19940;-62
2022/07/22 12:14:48;;;;;;;;;;;;;;;19.47;63.42;100226.94;5014567;28;19924;-61
2022/07/22 12:17:35;;;;;;;;;;;;;;;19.48;63.39;100218.16;5014663;28;19939;-62
2022/07/22 12:20:24;;;;;;;;;;;;;;;19.51;63.62;100230.38;5015063;28;19972;-61
2022/07/22 12:23:10;;;;;;;;;;;;;;;19.53;63.56;100225.97;5014772;28;19972;-61
2022/07/22 12:26:00;;;;;;;;;;;;;;;19.53;63.61;100211.97;5014702;28;20383;-62
2022/07/22 12:29:06;;;;;;;;;;;;;;;19.54;63.56;100206.66;5013864;28;20281;-61
2022/07/22 12:31:55;;;;;;;;;;;;;;;19.55;63.47;100203.16;5013260;28;19964;-62
2022/07/22 12:34:41;;;;;;;;;;;;;;;19.57;63.31;100193.47;5013736;28;20391;-61
2022/07/22 12:37:26;;;;;;;;;;;;;;;19.60;63.37;100189.91;5014419;28;19940;-59
2022/07/22 12:40:15;;;;;;;;;;;;;;;19.61;63.27;100199.53;5014737;28;19940;-61
2022/07/22 12:43:07;;;;;;;;;;;;;;;19.62;63.32;100210.00;5014579;28;20075;-60
2022/07/22 12:46:04;;;;;;;;;;;;;;;19.64;63.37;100199.47;5013592;28;19924;-60
2022/07/22 12:48:53;;;;;;;;;;;;;;;19.65;63.37;100209.09;5013125;28;19979;-60
2022/07/22 12:51:37;;;;;;;;;;;;;;;19.68;63.30;100223.94;5014040;28;19975;-62
2022/07/22 12:54:26;;;;;;;;;;;;;;;19.69;63.24;100220.41;5014551;28;20281;-60
2022/07/22 12:57:16;;;;;;;;;;;;;;;19.68;63.30;100213.44;5013566;28;19924;-61
2022/07/22 13:00:05;;;;;;;;;;;;;;;19.69;63.28;100210.78;5013622;28;19952;-60
2022/07/22 13:02:52;;;;;;;;;;;;;;;19.71;63.21;100219.47;5013119;28;19924;-61
2022/07/22 13:05:37;;;;;;;;;;;;;;;19.74;63.36;100221.22;5013194;28;19944;-60
2022/07/22 13:08:24;;;;;;;;;;;;;;;19.75;63.38;100220.31;5013414;28;19961;-60
2022/07/22 13:11:13;;;;;;;;;;;;;;;19.75;63.28;100205.41;5013699;28;20289;-60
2022/07/22 13:13:57;;;;;;;;;;;;;;;19.77;63.19;100200.97;5013565;28;19923;-60
2022/07/22 13:16:43;;;;;;;;;;;;;;;19.78;63.16;100200.09;5014208;28;19924;-60
2022/07/22 13:19:28;;;;;;;;;;;;;;;19.80;63.25;100183.41;5014278;28;19924;-60
2022/07/22 13:22:14;;;;;;;;;;;;;;;19.82;63.25;100200.03;5013953;28;20079;-60
2022/07/22 13:25:04;;;;;;;;;;;;;;;19.82;63.20;100197.41;5014090;28;19963;-60
2022/07/22 13:27:50;;;;;;;;;;;;;;;19.83;63.15;100191.25;5013494;28;19948;-61
2022/07/22 13:30:37;;;;;;;;;;;;;;;19.83;63.25;100193.88;5012713;28;19924;-61
2022/07/22 13:33:24;;;;;;;;;;;;;;;19.84;63.04;100190.34;5013911;28;19923;-62
2022/07/22 13:36:08;;;;;;;;;;;;;;;19.81;63.21;100182.50;5013149;28;19972;-62
2022/07/22 13:38:52;;;;;;;;;;;;;;;19.82;63.17;100192.13;5013488;28;19940;-62
2022/07/22 13:41:39;;;;;;;;;;;;;;;19.82;63.06;100186.88;5014022;28;19975;-61
2022/07/22 13:44:28;;;;;;;;;;;;;;;19.85;63.06;100182.41;5014016;28;19940;-61
2022/07/22 13:47:21;;;;;;;;;;;;;;;19.86;63.16;100180.63;5013088;28;19964;-62
2022/07/22 13:50:08;;;;;;;;;;;;;;;19.85;62.92;100179.78;5013084;28;19923;-62
2022/07/22 13:52:57;;;;;;;;;;;;;;;19.86;63.04;100185.91;5012374;28;19971;-62
2022/07/22 13:55:41;;;;;;;;;;;;;;;19.87;63.13;100178.03;5013683;28;19968;-62
2022/07/22 13:58:25;;;;;;;;;;;;;;;19.89;63.07;100175.34;5012926;28;19925;-61
2022/07/22 14:01:09;;;;;;;;;;;;;;;19.88;62.94;100173.63;5014805;28;19939;-61
2022/07/22 14:04:00;;;;;;;;;;;;;;;19.89;63.05;100176.25;5016096;28;19963;-61
2022/07/22 14:06:47;;;;;;;;;;;;;;;19.88;62.93;100178.88;5016299;28;19972;-61
2022/07/22 14:09:31;;;;;;;;;;;;;;;19.90;62.92;100187.59;5017325;28;19925;-62
2022/07/22 14:12:17;;;;;;;;;;;;;;;19.89;63.00;100186.75;5016672;28;19924;-62